Minot, ND (58701)

3:26 PM CDT on August 29, 2015 (GMT -0500)
Why Not Minot | | Change Station
CLOSE
Current Station
Personal Weather Station
Location: Minot, ND
Elevation: 1759 ft
Nearby Weather Stations

Elev 1759 ft 48.22 °N, 101.30 °W | Updated 14 minutes ago

Haze
Haze
91.6 °F
Feels Like 89 °F
N
1.1
Wind Variable Wind from SW

Today
High -- | Low -- °F
--% Chance of Precip.
Yesterday
High -- | Low -- °F
Precip. -- in
6:58 AM 8:32 PM
Full, 100% visible
Pressure 29.83 in
Visibility 3.0 miles
Clouds Mostly Cloudy 3100 ft
Heat Index 89 °F
Dew Point 53 °F
Humidity 27%
Rainfall 0.00 in
Snow Depth Not available.
UV 4 out of 12
Pollen 10.60 out of 12
Air Quality Not available.
Flu Activity Not available.
SPECI KMOT 292001Z 18010KT 3SM HZ BKN031 32/11 A2983 RMK AO2 T03170106
Pressure 29.83 in
Visibility 3.0 miles
Clouds Mostly Cloudy 3100 ft
Heat Index 89 °F
Dew Point 53 °F
Humidity 27%
Rainfall 0.00 in
Snow Depth Not available.
UV 4 out of 12
Pollen 10.60 out of 12
Air Quality Not available.
Flu Activity Not available.
SPECI KMOT 292001Z 18010KT 3SM HZ BKN031 32/11 A2983 RMK AO2 T03170106

10-Day Weather Forecast

×

Almanac

Astronomy

Aug. 29, 2015 Rise Set
Actual Time
Civil Twilight
Nautical Twilight
Astronomical Twilight
Moon
Length of Visible Light
Length of Day
Tomorrow will be .
, % of the Moon is Illuminated

Today's Extremes

State Highs State Lows

Community

WunderPhotos

Upload Photos

1,850,796 photos uploaded!

WunderBlogs® & News

Nearby

Air Quality

  Air Quality AQ Index Pollutant
Not available.

Snow Depth

Station Depth Elevation

Earthquake Activity

City Distance Mag. Time & Date
Minimum magnitude displayed is 2.5.

Coastal Water Temperatures

Place Temperature

Stations

Nearby Weather Stations

Station Location Temp. Windchill Dew Point Humidity Wind Precip. Elev Updated Type